sensor_id;sensor_type;location;lat;lon;timestamp;pressure;altitude;pressure_sealevel;temperature;humidity
14790;BME280;7486;51.010;10.366;2022-07-01T00:02:18;97856.78;;;18.50;64.12
14790;BME280;7486;51.010;10.366;2022-07-01T00:04:45;97880.09;;;18.50;64.90
14790;BME280;7486;51.010;10.366;2022-07-01T00:07:31;97869.56;;;18.33;65.91
14790;BME280;7486;51.010;10.366;2022-07-01T00:09:57;97872.06;;;18.50;65.42
14790;BME280;7486;51.010;10.366;2022-07-01T00:12:24;97878.22;;;18.45;65.67
14790;BME280;7486;51.010;10.366;2022-07-01T00:14:51;97872.88;;;18.45;65.79
14790;BME280;7486;51.010;10.366;2022-07-01T00:17:17;97886.81;;;18.52;65.72
14790;BME280;7486;51.010;10.366;2022-07-01T00:19:44;97893.72;;;18.38;66.70
14790;BME280;7486;51.010;10.366;2022-07-01T00:22:10;97904.97;;;18.40;66.89
14790;BME280;7486;51.010;10.366;2022-07-01T00:24:37;97910.13;;;18.47;66.65
14790;BME280;7486;51.010;10.366;2022-07-01T00:27:04;97905.75;;;18.36;66.93
14790;BME280;7486;51.010;10.366;2022-07-01T00:29:31;97913.47;;;18.12;67.59
14790;BME280;7486;51.010;10.366;2022-07-01T00:31:58;97905.13;;;18.08;68.03
14790;BME280;7486;51.010;10.366;2022-07-01T00:34:24;97906.50;;;18.11;68.52
14790;BME280;7486;51.010;10.366;2022-07-01T00:36:51;97911.63;;;18.22;67.90
14790;BME280;7486;51.010;10.366;2022-07-01T00:39:18;97911.91;;;18.26;68.29
14790;BME280;7486;51.010;10.366;2022-07-01T00:41:44;97902.28;;;18.25;68.08
14790;BME280;7486;51.010;10.366;2022-07-01T00:44:18;97899.50;;;18.05;69.49
14790;BME280;7486;51.010;10.366;2022-07-01T00:46:46;97904.41;;;18.23;68.47
14790;BME280;7486;51.010;10.366;2022-07-01T00:49:16;97911.38;;;18.24;68.78
14790;BME280;7486;51.010;10.366;2022-07-01T00:51:43;97905.50;;;18.37;67.74
14790;BME280;7486;51.010;10.366;2022-07-01T00:54:10;97919.66;;;18.22;68.63
14790;BME280;7486;51.010;10.366;2022-07-01T00:56:37;97927.44;;;18.14;68.63
14790;BME280;7486;51.010;10.366;2022-07-01T00:59:04;97926.81;;;17.97;69.60
14790;BME280;7486;51.010;10.366;2022-07-01T01:01:31;97910.09;;;17.80;70.01
14790;BME280;7486;51.010;10.366;2022-07-01T01:03:58;97919.78;;;17.86;70.37
14790;BME280;7486;51.010;10.366;2022-07-01T01:06:25;97902.75;;;17.65;70.61
14790;BME280;7486;51.010;10.366;2022-07-01T01:08:52;97940.91;;;17.77;70.74
14790;BME280;7486;51.010;10.366;2022-07-01T01:11:19;97946.56;;;17.81;70.78
14790;BME280;7486;51.010;10.366;2022-07-01T01:13:46;97951.94;;;17.49;70.83
14790;BME280;7486;51.010;10.366;2022-07-01T01:16:17;97966.44;;;17.53;70.84
14790;BME280;7486;51.010;10.366;2022-07-01T01:18:44;97958.91;;;17.50;70.34
14790;BME280;7486;51.010;10.366;2022-07-01T01:21:11;97966.50;;;17.31;69.70
14790;BME280;7486;51.010;10.366;2022-07-01T01:23:38;97954.66;;;17.22;69.24
14790;BME280;7486;51.010;10.366;2022-07-01T01:26:21;97971.28;;;17.24;68.50
14790;BME280;7486;51.010;10.366;2022-07-01T01:28:48;97974.41;;;17.16;68.40
14790;BME280;7486;51.010;10.366;2022-07-01T01:31:15;97945.69;;;16.80;68.95
14790;BME280;7486;51.010;10.366;2022-07-01T01:33:42;97934.38;;;16.46;69.34
14790;BME280;7486;51.010;10.366;2022-07-01T01:36:09;97995.66;;;16.52;70.11
14790;BME280;7486;51.010;10.366;2022-07-01T01:38:36;97999.50;;;16.61;69.86
14790;BME280;7486;51.010;10.366;2022-07-01T01:41:04;97995.34;;;16.70;69.22
14790;BME280;7486;51.010;10.366;2022-07-01T01:43:31;97994.25;;;16.71;68.95
14790;BME280;7486;51.010;10.366;2022-07-01T01:45:57;98003.38;;;16.70;69.00
14790;BME280;7486;51.010;10.366;2022-07-01T01:48:24;98010.88;;;16.52;69.39
14790;BME280;7486;51.010;10.366;2022-07-01T01:50:51;98023.44;;;16.30;70.00
14790;BME280;7486;51.010;10.366;2022-07-01T01:53:17;98023.69;;;16.28;70.08
14790;BME280;7486;51.010;10.366;2022-07-01T01:55:44;98030.22;;;15.99;70.78
14790;BME280;7486;51.010;10.366;2022-07-01T01:58:11;98025.91;;;15.98;71.31
14790;BME280;7486;51.010;10.366;2022-07-01T02:00:38;98006.50;;;15.86;70.40
14790;BME280;7486;51.010;10.366;2022-07-01T02:03:04;98027.88;;;15.69;72.09
14790;BME280;7486;51.010;10.366;2022-07-01T02:05:31;98030.31;;;15.70;71.51
14790;BME280;7486;51.010;10.366;2022-07-01T02:07:58;98025.28;;;15.57;71.68
14790;BME280;7486;51.010;10.366;2022-07-01T02:10:25;98031.63;;;15.51;71.86
14790;BME280;7486;51.010;10.366;2022-07-01T02:12:52;98040.19;;;15.53;71.16
14790;BME280;7486;51.010;10.366;2022-07-01T02:15:19;98026.50;;;15.33;71.39
14790;BME280;7486;51.010;10.366;2022-07-01T02:17:46;98051.28;;;15.17;72.49
14790;BME280;7486;51.010;10.366;2022-07-01T02:20:12;98037.81;;;15.12;72.77
14790;BME280;7486;51.010;10.366;2022-07-01T02:22:39;98042.56;;;15.38;71.57
14790;BME280;7486;51.010;10.366;2022-07-01T02:25:06;98035.25;;;15.17;72.04
14790;BME280;7486;51.010;10.366;2022-07-01T02:27:33;98042.53;;;15.21;72.02
14790;BME280;7486;51.010;10.366;2022-07-01T02:29:59;98046.69;;;15.29;71.50
14790;BME280;7486;51.010;10.366;2022-07-01T02:32:26;98054.22;;;15.32;71.76
14790;BME280;7486;51.010;10.366;2022-07-01T02:34:52;98062.41;;;15.42;71.21
14790;BME280;7486;51.010;10.366;2022-07-01T02:37:19;98063.94;;;15.38;71.78
14790;BME280;7486;51.010;10.366;2022-07-01T02:39:46;98076.25;;;15.56;71.01
14790;BME280;7486;51.010;10.366;2022-07-01T02:42:12;98074.59;;;15.38;70.82
14790;BME280;7486;51.010;10.366;2022-07-01T02:44:39;98086.38;;;15.25;71.57
14790;BME280;7486;51.010;10.366;2022-07-01T02:47:06;98072.47;;;15.23;71.66
14790;BME280;7486;51.010;10.366;2022-07-01T02:49:32;98059.84;;;15.19;71.40
14790;BME280;7486;51.010;10.366;2022-07-01T02:51:59;98089.41;;;15.46;70.93
14790;BME280;7486;51.010;10.366;2022-07-01T02:54:26;98112.72;;;15.50;70.31
14790;BME280;7486;51.010;10.366;2022-07-01T02:56:52;98110.72;;;15.57;69.89
14790;BME280;7486;51.010;10.366;2022-07-01T02:59:19;98126.44;;;15.70;69.47
14790;BME280;7486;51.010;10.366;2022-07-01T03:01:46;98132.63;;;15.59;69.72
14790;BME280;7486;51.010;10.366;2022-07-01T03:04:12;98143.09;;;15.61;69.53
14790;BME280;7486;51.010;10.366;2022-07-01T03:06:39;98155.44;;;15.50;69.45
14790;BME280;7486;51.010;10.366;2022-07-01T03:09:06;98160.84;;;15.55;69.48
14790;BME280;7486;51.010;10.366;2022-07-01T03:11:33;98151.72;;;15.51;69.59
14790;BME280;7486;51.010;10.366;2022-07-01T03:13:59;98143.41;;;15.48;68.92
14790;BME280;7486;51.010;10.366;2022-07-01T03:16:26;98138.81;;;15.32;69.45
14790;BME280;7486;51.010;10.366;2022-07-01T03:18:53;98118.41;;;15.14;69.68
14790;BME280;7486;51.010;10.366;2022-07-01T03:21:19;98124.81;;;15.13;70.07
14790;BME280;7486;51.010;10.366;2022-07-01T03:23:46;98133.03;;;15.11;69.91
14790;BME280;7486;51.010;10.366;2022-07-01T03:26:13;98130.28;;;15.06;70.03
14790;BME280;7486;51.010;10.366;2022-07-01T03:28:39;98138.25;;;15.18;69.02
14790;BME280;7486;51.010;10.366;2022-07-01T03:31:06;98133.47;;;14.92;68.06
14790;BME280;7486;51.010;10.366;2022-07-01T03:33:33;98131.13;;;14.95;68.49
14790;BME280;7486;51.010;10.366;2022-07-01T03:36:00;98133.84;;;14.72;68.81
14790;BME280;7486;51.010;10.366;2022-07-01T03:38:26;98121.91;;;14.74;68.96
14790;BME280;7486;51.010;10.366;2022-07-01T03:40:53;98124.91;;;14.66;68.12
14790;BME280;7486;51.010;10.366;2022-07-01T03:43:19;98145.09;;;14.62;68.51
14790;BME280;7486;51.010;10.366;2022-07-01T03:45:47;98149.84;;;14.72;68.48
14790;BME280;7486;51.010;10.366;2022-07-01T03:48:14;98152.25;;;14.73;67.59
14790;BME280;7486;51.010;10.366;2022-07-01T03:50:41;98147.25;;;14.89;67.14
14790;BME280;7486;51.010;10.366;2022-07-01T03:53:07;98152.88;;;14.64;67.45
14790;BME280;7486;51.010;10.366;2022-07-01T03:55:34;98164.34;;;14.64;67.70
14790;BME280;7486;51.010;10.366;2022-07-01T03:58:00;98124.13;;;14.31;67.78
14790;BME280;7486;51.010;10.366;2022-07-01T04:00:28;98140.69;;;14.56;67.14
14790;BME280;7486;51.010;10.366;2022-07-01T04:02:54;98172.56;;;14.74;67.14
14790;BME280;7486;51.010;10.366;2022-07-01T04:05:21;98170.50;;;14.65;67.81
14790;BME280;7486;51.010;10.366;2022-07-01T04:07:48;98180.78;;;14.73;67.85
14790;BME280;7486;51.010;10.366;2022-07-01T04:10:15;98177.53;;;14.83;66.43
14790;BME280;7486;51.010;10.366;2022-07-01T04:12:41;98179.66;;;14.69;67.34
14790;BME280;7486;51.010;10.366;2022-07-01T04:15:18;98180.31;;;14.76;67.26
14790;BME280;7486;51.010;10.366;2022-07-01T04:17:45;98188.34;;;14.64;67.61
14790;BME280;7486;51.010;10.366;2022-07-01T04:20:11;98166.41;;;14.39;67.29
14790;BME280;7486;51.010;10.366;2022-07-01T04:22:38;98189.16;;;14.42;67.88
14790;BME280;7486;51.010;10.366;2022-07-01T04:25:05;98198.88;;;14.48;67.77
14790;BME280;7486;51.010;10.366;2022-07-01T04:27:32;98201.66;;;14.53;68.31
14790;BME280;7486;51.010;10.366;2022-07-01T04:29:59;98205.34;;;14.40;68.32
14790;BME280;7486;51.010;10.366;2022-07-01T04:32:26;98211.84;;;14.44;68.21
14790;BME280;7486;51.010;10.366;2022-07-01T04:34:54;98211.13;;;14.37;68.33
14790;BME280;7486;51.010;10.366;2022-07-01T04:37:20;98194.66;;;14.17;67.96
14790;BME280;7486;51.010;10.366;2022-07-01T04:39:47;98211.25;;;14.31;68.38
14790;BME280;7486;51.010;10.366;2022-07-01T04:42:14;98225.34;;;14.19;68.20
14790;BME280;7486;51.010;10.366;2022-07-01T04:44:41;98236.41;;;14.05;69.45
14790;BME280;7486;51.010;10.366;2022-07-01T04:47:10;98230.63;;;14.08;69.65
14790;BME280;7486;51.010;10.366;2022-07-01T04:49:36;98222.22;;;14.11;69.37
14790;BME280;7486;51.010;10.366;2022-07-01T04:52:03;98220.13;;;14.13;70.72
14790;BME280;7486;51.010;10.366;2022-07-01T04:54:30;98215.25;;;14.21;71.99
14790;BME280;7486;51.010;10.366;2022-07-01T04:56:56;98210.31;;;14.37;72.45
14790;BME280;7486;51.010;10.366;2022-07-01T04:59:23;98222.06;;;14.47;73.00
14790;BME280;7486;51.010;10.366;2022-07-01T05:01:50;98221.31;;;14.40;75.17
14790;BME280;7486;51.010;10.366;2022-07-01T05:04:18;98212.72;;;14.27;75.51
14790;BME280;7486;51.010;10.366;2022-07-01T05:06:45;98208.63;;;14.01;75.98
14790;BME280;7486;51.010;10.366;2022-07-01T05:09:12;98158.91;;;13.71;76.81
14790;BME280;7486;51.010;10.366;2022-07-01T05:11:38;98163.16;;;13.61;78.25
14790;BME280;7486;51.010;10.366;2022-07-01T05:14:06;98158.53;;;13.68;78.33
14790;BME280;7486;51.010;10.366;2022-07-01T05:16:33;98143.22;;;13.52;78.94
14790;BME280;7486;51.010;10.366;2022-07-01T05:19:02;98181.97;;;13.89;77.86
14790;BME280;7486;51.010;10.366;2022-07-01T05:21:29;98195.06;;;13.91;77.47
14790;BME280;7486;51.010;10.366;2022-07-01T05:23:56;98209.06;;;13.98;79.04
14790;BME280;7486;51.010;10.366;2022-07-01T05:26:23;98215.56;;;13.90;78.38
14790;BME280;7486;51.010;10.366;2022-07-01T05:28:49;98216.97;;;14.04;77.52
14790;BME280;7486;51.010;10.366;2022-07-01T05:31:16;98218.59;;;13.94;77.74
14790;BME280;7486;51.010;10.366;2022-07-01T05:33:43;98219.31;;;13.71;79.53
14790;BME280;7486;51.010;10.366;2022-07-01T05:36:10;98233.69;;;13.82;79.86
14790;BME280;7486;51.010;10.366;2022-07-01T05:38:37;98237.53;;;13.86;79.80
14790;BME280;7486;51.010;10.366;2022-07-01T05:41:04;98247.00;;;13.82;79.13
14790;BME280;7486;51.010;10.366;2022-07-01T05:43:31;98258.16;;;13.90;78.56
14790;BME280;7486;51.010;10.366;2022-07-01T05:45:57;98247.72;;;13.89;78.99
14790;BME280;7486;51.010;10.366;2022-07-01T05:48:24;98252.56;;;13.80;79.76
14790;BME280;7486;51.010;10.366;2022-07-01T05:50:51;98258.47;;;13.82;80.22
14790;BME280;7486;51.010;10.366;2022-07-01T05:53:18;98219.47;;;13.58;79.34
14790;BME280;7486;51.010;10.366;2022-07-01T05:55:45;98245.91;;;13.71;79.90
14790;BME280;7486;51.010;10.366;2022-07-01T05:58:12;98256.25;;;13.79;80.27
14790;BME280;7486;51.010;10.366;2022-07-01T06:00:40;98255.34;;;13.85;79.47
14790;BME280;7486;51.010;10.366;2022-07-01T06:03:08;98263.97;;;13.99;78.79
14790;BME280;7486;51.010;10.366;2022-07-01T06:05:34;98259.47;;;13.99;78.49
14790;BME280;7486;51.010;10.366;2022-07-01T06:08:02;98262.94;;;14.00;78.61
14790;BME280;7486;51.010;10.366;2022-07-01T06:10:29;98269.44;;;14.04;78.44
14790;BME280;7486;51.010;10.366;2022-07-01T06:12:56;98277.44;;;14.04;78.66
14790;BME280;7486;51.010;10.366;2022-07-01T06:15:23;98282.31;;;14.07;79.32
14790;BME280;7486;51.010;10.366;2022-07-01T06:17:50;98291.00;;;14.14;78.84
14790;BME280;7486;51.010;10.366;2022-07-01T06:20:17;98307.16;;;14.01;81.02
14790;BME280;7486;51.010;10.366;2022-07-01T06:22:43;98313.66;;;14.05;80.77
14790;BME280;7486;51.010;10.366;2022-07-01T06:25:10;98325.59;;;14.02;79.75
14790;BME280;7486;51.010;10.366;2022-07-01T06:27:38;98331.56;;;13.98;80.42
14790;BME280;7486;51.010;10.366;2022-07-01T06:30:05;98335.41;;;14.02;80.03
14790;BME280;7486;51.010;10.366;2022-07-01T06:32:32;98342.84;;;14.00;80.34
14790;BME280;7486;51.010;10.366;2022-07-01T06:34:59;98318.75;;;13.77;79.60
14790;BME280;7486;51.010;10.366;2022-07-01T06:37:26;98332.25;;;13.93;79.15
14790;BME280;7486;51.010;10.366;2022-07-01T06:39:53;98331.91;;;13.90;79.47
14790;BME280;7486;51.010;10.366;2022-07-01T06:42:20;98340.84;;;13.77;80.03
14790;BME280;7486;51.010;10.366;2022-07-01T06:44:46;98348.19;;;13.63;80.17
14790;BME280;7486;51.010;10.366;2022-07-01T06:47:13;98342.84;;;13.63;81.11
14790;BME280;7486;51.010;10.366;2022-07-01T06:49:40;98338.50;;;13.69;80.75
14790;BME280;7486;51.010;10.366;2022-07-01T06:52:06;98332.13;;;13.70;80.66
14790;BME280;7486;51.010;10.366;2022-07-01T06:54:33;98353.03;;;13.66;81.13
14790;BME280;7486;51.010;10.366;2022-07-01T06:57:00;98355.00;;;13.59;82.42
14790;BME280;7486;51.010;10.366;2022-07-01T06:59:26;98347.31;;;13.69;82.46
14790;BME280;7486;51.010;10.366;2022-07-01T07:01:53;98351.06;;;13.62;82.46
14790;BME280;7486;51.010;10.366;2022-07-01T07:04:20;98350.53;;;13.71;82.06
14790;BME280;7486;51.010;10.366;2022-07-01T07:07:06;98340.63;;;13.79;82.32
14790;BME280;7486;51.010;10.366;2022-07-01T07:09:33;98338.56;;;13.81;81.27
14790;BME280;7486;51.010;10.366;2022-07-01T07:12:00;98340.63;;;13.79;82.33
14790;BME280;7486;51.010;10.366;2022-07-01T07:14:26;98347.16;;;13.83;82.06
14790;BME280;7486;51.010;10.366;2022-07-01T07:16:53;98346.59;;;13.92;81.36
14790;BME280;7486;51.010;10.366;2022-07-01T07:19:20;98350.81;;;14.00;81.13
14790;BME280;7486;51.010;10.366;2022-07-01T07:21:47;98349.34;;;14.04;81.54
14790;BME280;7486;51.010;10.366;2022-07-01T07:24:13;98349.19;;;13.99;80.73
14790;BME280;7486;51.010;10.366;2022-07-01T07:26:40;98355.03;;;13.89;82.20
14790;BME280;7486;51.010;10.366;2022-07-01T07:29:07;98329.53;;;13.82;82.15
14790;BME280;7486;51.010;10.366;2022-07-01T07:31:33;98358.00;;;13.99;82.00
14790;BME280;7486;51.010;10.366;2022-07-01T07:34:00;98366.19;;;13.98;82.34
14790;BME280;7486;51.010;10.366;2022-07-01T07:36:27;98367.56;;;14.18;82.04
14790;BME280;7486;51.010;10.366;2022-07-01T07:38:53;98375.56;;;14.18;80.91
14790;BME280;7486;51.010;10.366;2022-07-01T07:41:20;98374.53;;;14.19;81.51
14790;BME280;7486;51.010;10.366;2022-07-01T07:43:47;98371.41;;;14.22;80.78
14790;BME280;7486;51.010;10.366;2022-07-01T07:46:13;98361.78;;;14.21;80.19
14790;BME280;7486;51.010;10.366;2022-07-01T07:48:40;98363.78;;;14.26;80.04
14790;BME280;7486;51.010;10.366;2022-07-01T07:51:07;98356.09;;;14.18;79.85
14790;BME280;7486;51.010;10.366;2022-07-01T07:53:33;98358.31;;;14.21;80.60
14790;BME280;7486;51.010;10.366;2022-07-01T07:56:00;98353.31;;;14.13;79.69
14790;BME280;7486;51.010;10.366;2022-07-01T07:58:27;98349.16;;;14.17;79.76
14790;BME280;7486;51.010;10.366;2022-07-01T08:00:56;98369.09;;;14.26;79.65
14790;BME280;7486;51.010;10.366;2022-07-01T08:03:23;98380.31;;;14.16;79.03
14790;BME280;7486;51.010;10.366;2022-07-01T08:05:50;98375.56;;;14.18;79.59
14790;BME280;7486;51.010;10.366;2022-07-01T08:08:16;98388.22;;;14.05;79.47
14790;BME280;7486;51.010;10.366;2022-07-01T08:10:48;98388.09;;;14.00;81.41
14790;BME280;7486;51.010;10.366;2022-07-01T08:13:15;98385.94;;;14.08;81.30
14790;BME280;7486;51.010;10.366;2022-07-01T08:15:42;98380.50;;;14.15;80.01
14790;BME280;7486;51.010;10.366;2022-07-01T08:18:08;98375.19;;;14.15;80.05
14790;BME280;7486;51.010;10.366;2022-07-01T08:20:35;98383.81;;;13.99;80.25
14790;BME280;7486;51.010;10.366;2022-07-01T08:23:02;98388.84;;;13.89;80.20
14790;BME280;7486;51.010;10.366;2022-07-01T08:25:29;98377.00;;;13.85;80.57
14790;BME280;7486;51.010;10.366;2022-07-01T08:28:02;98402.66;;;13.97;80.69
14790;BME280;7486;51.010;10.366;2022-07-01T08:30:29;98413.25;;;14.04;81.03
14790;BME280;7486;51.010;10.366;2022-07-01T08:32:55;98414.13;;;13.98;80.53
14790;BME280;7486;51.010;10.366;2022-07-01T08:35:22;98414.72;;;14.00;80.26
14790;BME280;7486;51.010;10.366;2022-07-01T08:37:49;98416.66;;;14.11;79.09
14790;BME280;7486;51.010;10.366;2022-07-01T08:40:15;98420.91;;;14.12;78.94
14790;BME280;7486;51.010;10.366;2022-07-01T08:42:42;98418.59;;;14.04;79.82
14790;BME280;7486;51.010;10.366;2022-07-01T08:45:09;98435.31;;;13.93;81.14
14790;BME280;7486;51.010;10.366;2022-07-01T08:47:49;98399.72;;;13.69;80.73
14790;BME280;7486;51.010;10.366;2022-07-01T08:50:16;98436.78;;;13.89;80.73
14790;BME280;7486;51.010;10.366;2022-07-01T08:52:49;98444.19;;;13.87;80.46
14790;BME280;7486;51.010;10.366;2022-07-01T08:55:15;98453.63;;;13.83;80.82
14790;BME280;7486;51.010;10.366;2022-07-01T08:57:42;98454.63;;;13.63;81.02
14790;BME280;7486;51.010;10.366;2022-07-01T09:00:09;98453.97;;;13.43;81.52
14790;BME280;7486;51.010;10.366;2022-07-01T09:03:00;98460.25;;;13.31;82.23
14790;BME280;7486;51.010;10.366;2022-07-01T09:05:29;98463.44;;;13.39;82.21
14790;BME280;7486;51.010;10.366;2022-07-01T09:08:06;98464.81;;;13.23;81.44
14790;BME280;7486;51.010;10.366;2022-07-01T09:10:33;98468.13;;;12.88;82.18
14790;BME280;7486;51.010;10.366;2022-07-01T09:13:05;98484.59;;;12.71;84.12
14790;BME280;7486;51.010;10.366;2022-07-01T09:15:33;98484.78;;;12.77;84.64
14790;BME280;7486;51.010;10.366;2022-07-01T09:18:11;98503.63;;;12.68;82.69
14790;BME280;7486;51.010;10.366;2022-07-01T09:20:40;98510.81;;;12.55;83.47
14790;BME280;7486;51.010;10.366;2022-07-01T09:23:12;98506.50;;;12.60;82.98
14790;BME280;7486;51.010;10.366;2022-07-01T09:25:49;98509.81;;;12.56;82.82
14790;BME280;7486;51.010;10.366;2022-07-01T09:28:23;98523.69;;;12.51;84.00
14790;BME280;7486;51.010;10.366;2022-07-01T09:30:52;98515.94;;;12.56;83.71
14790;BME280;7486;51.010;10.366;2022-07-01T09:33:29;98519.22;;;12.45;84.26
14790;BME280;7486;51.010;10.366;2022-07-01T09:35:57;98523.53;;;12.46;84.96
14790;BME280;7486;51.010;10.366;2022-07-01T09:38:24;98500.91;;;12.24;85.60
14790;BME280;7486;51.010;10.366;2022-07-01T09:41:03;98526.59;;;12.37;84.13
14790;BME280;7486;51.010;10.366;2022-07-01T09:43:32;98516.38;;;12.40;85.63
14790;BME280;7486;51.010;10.366;2022-07-01T09:46:02;98514.31;;;12.49;84.86
14790;BME280;7486;51.010;10.366;2022-07-01T09:50:59;98468.28;;;12.10;86.67
14790;BME280;7486;51.010;10.366;2022-07-01T09:53:26;98490.66;;;12.34;85.56
14790;BME280;7486;51.010;10.366;2022-07-01T09:55:53;98481.72;;;12.22;85.24
14790;BME280;7486;51.010;10.366;2022-07-01T09:58:20;98508.63;;;12.39;85.12
14790;BME280;7486;51.010;10.366;2022-07-01T10:00:47;98507.59;;;12.46;84.81
14790;BME280;7486;51.010;10.366;2022-07-01T10:03:14;98509.44;;;12.46;85.63
14790;BME280;7486;51.010;10.366;2022-07-01T10:05:50;98503.06;;;12.53;85.81
14790;BME280;7486;51.010;10.366;2022-07-01T10:08:36;98493.03;;;12.55;86.86
14790;BME280;7486;51.010;10.366;2022-07-01T10:14:13;98486.06;;;12.54;86.99
14790;BME280;7486;51.010;10.366;2022-07-01T10:16:40;98476.69;;;12.58;87.01
14790;BME280;7486;51.010;10.366;2022-07-01T10:19:26;98490.09;;;12.77;86.24
14790;BME280;7486;51.010;10.366;2022-07-01T10:21:55;98484.00;;;12.69;85.08
14790;BME280;7486;51.010;10.366;2022-07-01T10:24:24;98478.06;;;12.67;85.58
14790;BME280;7486;51.010;10.366;2022-07-01T10:26:51;98497.44;;;12.74;86.18
14790;BME280;7486;51.010;10.366;2022-07-01T10:29:29;98465.97;;;12.71;85.59
14790;BME280;7486;51.010;10.366;2022-07-01T10:35:10;98505.91;;;12.96;84.54
14790;BME280;7486;51.010;10.366;2022-07-01T10:37:57;98507.84;;;13.14;83.39
14790;BME280;7486;51.010;10.366;2022-07-01T10:40:44;98509.31;;;13.35;83.49
14790;BME280;7486;51.010;10.366;2022-07-01T10:43:11;98516.25;;;13.36;84.61
14790;BME280;7486;51.010;10.366;2022-07-01T10:45:57;98533.72;;;13.56;85.26
14790;BME280;7486;51.010;10.366;2022-07-01T10:48:24;98532.59;;;14.68;78.05
14790;BME280;7486;51.010;10.366;2022-07-01T10:50:52;98526.72;;;15.37;73.98
14790;BME280;7486;51.010;10.366;2022-07-01T10:53:19;98522.22;;;15.72;71.37
14790;BME280;7486;51.010;10.366;2022-07-01T10:55:51;98526.50;;;15.97;70.03
14790;BME280;7486;51.010;10.366;2022-07-01T10:58:39;98523.41;;;16.11;68.67
14790;BME280;7486;51.010;10.366;2022-07-01T11:01:06;98525.13;;;16.17;68.22
14790;BME280;7486;51.010;10.366;2022-07-01T11:03:37;98523.16;;;16.24;67.90
14790;BME280;7486;51.010;10.366;2022-07-01T11:06:04;98528.84;;;16.28;68.11
14790;BME280;7486;51.010;10.366;2022-07-01T11:08:30;98528.50;;;16.24;68.43
14790;BME280;7486;51.010;10.366;2022-07-01T11:11:00;98541.84;;;16.24;68.74
14790;BME280;7486;51.010;10.366;2022-07-01T11:13:27;98533.63;;;16.14;69.15
14790;BME280;7486;51.010;10.366;2022-07-01T11:15:54;98546.03;;;16.20;68.61
14790;BME280;7486;51.010;10.366;2022-07-01T11:18:22;98514.44;;;16.06;68.40
14790;BME280;7486;51.010;10.366;2022-07-01T11:20:49;98539.66;;;16.33;67.98
14790;BME280;7486;51.010;10.366;2022-07-01T11:23:16;98536.50;;;16.36;68.35
14790;BME280;7486;51.010;10.366;2022-07-01T11:25:42;98535.00;;;16.29;68.54
14790;BME280;7486;51.010;10.366;2022-07-01T11:28:11;98532.09;;;16.30;68.06
14790;BME280;7486;51.010;10.366;2022-07-01T11:30:37;98523.94;;;16.37;68.39
14790;BME280;7486;51.010;10.366;2022-07-01T11:33:04;98526.06;;;16.23;68.80
14790;BME280;7486;51.010;10.366;2022-07-01T11:35:32;98518.63;;;16.25;68.82
14790;BME280;7486;51.010;10.366;2022-07-01T11:38:10;98511.16;;;16.27;68.40
14790;BME280;7486;51.010;10.366;2022-07-01T11:40:38;98513.50;;;16.23;68.88
14790;BME280;7486;51.010;10.366;2022-07-01T11:43:18;98520.13;;;16.21;68.73
14790;BME280;7486;51.010;10.366;2022-07-01T11:45:45;98512.13;;;16.21;68.53
14790;BME280;7486;51.010;10.366;2022-07-01T11:48:12;98514.69;;;16.16;68.69
14790;BME280;7486;51.010;10.366;2022-07-01T11:50:38;98513.06;;;16.15;68.82
14790;BME280;7486;51.010;10.366;2022-07-01T11:53:07;98527.31;;;15.97;69.30
14790;BME280;7486;51.010;10.366;2022-07-01T11:55:34;98526.63;;;16.13;68.37
14790;BME280;7486;51.010;10.366;2022-07-01T11:58:03;98527.31;;;15.86;69.31
14790;BME280;7486;51.010;10.366;2022-07-01T12:00:33;98520.94;;;15.87;69.23
14790;BME280;7486;51.010;10.366;2022-07-01T12:03:00;98492.84;;;15.61;69.62
14790;BME280;7486;51.010;10.366;2022-07-01T12:05:27;98534.91;;;15.89;69.61
14790;BME280;7486;51.010;10.366;2022-07-01T12:07:55;98505.47;;;15.31;70.96
14790;BME280;7486;51.010;10.366;2022-07-01T12:10:25;98528.94;;;15.52;70.32
14790;BME280;7486;51.010;10.366;2022-07-01T12:12:53;98536.03;;;15.58;70.32
14790;BME280;7486;51.010;10.366;2022-07-01T12:15:23;98537.53;;;15.65;70.13
14790;BME280;7486;51.010;10.366;2022-07-01T12:17:50;98534.41;;;15.57;70.23
14790;BME280;7486;51.010;10.366;2022-07-01T12:20:31;98544.22;;;15.33;71.21
14790;BME280;7486;51.010;10.366;2022-07-01T12:23:12;98539.00;;;15.38;71.62
14790;BME280;7486;51.010;10.366;2022-07-01T12:25:39;98539.34;;;15.42;71.40
14790;BME280;7486;51.010;10.366;2022-07-01T12:28:06;98542.53;;;15.50;72.45
14790;BME280;7486;51.010;10.366;2022-07-01T12:30:33;98558.44;;;15.57;72.79
14790;BME280;7486;51.010;10.366;2022-07-01T12:33:08;98561.47;;;15.84;73.41
14790;BME280;7486;51.010;10.366;2022-07-01T12:35:39;98568.56;;;15.90;71.67
14790;BME280;7486;51.010;10.366;2022-07-01T12:38:06;98559.53;;;15.38;71.65
14790;BME280;7486;51.010;10.366;2022-07-01T12:40:33;98546.09;;;15.03;72.83
14790;BME280;7486;51.010;10.366;2022-07-01T12:42:59;98568.09;;;14.98;73.39
14790;BME280;7486;51.010;10.366;2022-07-01T12:45:27;98576.91;;;14.99;72.98
14790;BME280;7486;51.010;10.366;2022-07-01T12:47:56;98579.25;;;15.07;73.71
14790;BME280;7486;51.010;10.366;2022-07-01T12:50:28;98569.63;;;15.06;74.23
14790;BME280;7486;51.010;10.366;2022-07-01T12:53:07;98575.00;;;15.17;73.17
14790;BME280;7486;51.010;10.366;2022-07-01T12:58:07;98577.81;;;15.22;72.08
14790;BME280;7486;51.010;10.366;2022-07-01T13:00:35;98580.69;;;15.39;73.33
14790;BME280;7486;51.010;10.366;2022-07-01T13:03:02;98583.88;;;15.71;71.44
14790;BME280;7486;51.010;10.366;2022-07-01T13:05:31;98583.53;;;15.67;71.22
14790;BME280;7486;51.010;10.366;2022-07-01T13:07:58;98585.06;;;15.87;71.87
14790;BME280;7486;51.010;10.366;2022-07-01T13:10:25;98588.44;;;15.94;72.14
14790;BME280;7486;51.010;10.366;2022-07-01T13:12:52;98586.91;;;15.98;71.42
14790;BME280;7486;51.010;10.366;2022-07-01T13:15:19;98572.88;;;16.02;69.27
14790;BME280;7486;51.010;10.366;2022-07-01T13:17:47;98569.28;;;15.85;68.42